Time;durP1;ratioP1;P1;durP2;ratioP2;P2;SDS_P1;SDS_P2;PMS_P1;PMS_P2;Temp;Humidity;BMP_temperature;BMP_pressure;BME280_temperature;BME280_humidity;BME280_pressure;Samples;Min_cycle;Max_cycle;Signal;HPM_P1;HPM_P2
2022/12/07 00:01:03;;;;;;;59.00;23.50;;;179.20;2252.80;;;;;;5031227;28;20496;-74
2022/12/07 00:03:29;;;;;;;96.18;25.52;;;154.40;2252.80;;;;;;5008016;28;20033;-74
2022/12/07 00:05:57;;;;;;;;;;;154.40;2252.80;;;;;;5000404;28;20049;-74
2022/12/07 00:08:23;;;;;;;116.80;27.70;;;154.40;2252.80;;;;;;5015810;28;20366;-74
2022/12/07 00:10:48;;;;;;;;;;;154.30;2252.80;;;;;;5013094;28;20049;-75
2022/12/07 00:13:14;;;;;;;129.88;29.05;;;154.20;2252.80;;;;;;5019630;28;19905;-78
2022/12/07 00:15:39;;;;;;;;;;;154.20;2252.80;;;;;;5001095;28;20025;-75
2022/12/07 00:18:05;;;;;;;82.63;26.40;;;154.20;2252.80;;;;;;5020661;28;19995;-75
2022/12/07 00:20:31;;;;;;;;;;;154.20;2252.80;;;;;;5015688;28;20049;-75
2022/12/07 00:22:57;;;;;;;154.32;29.52;;;154.20;2252.80;;;;;;5015214;28;19951;-74
2022/12/07 00:25:22;;;;;;;;;;;154.20;2252.80;;;;;;5012027;28;20120;-74
2022/12/07 00:27:48;;;;;;;143.23;24.70;;;154.20;2252.80;;;;;;5017260;28;19905;-74
2022/12/07 00:30:14;;;;;;;;;;;153.90;2252.80;;;;;;5012646;28;20033;-74
2022/12/07 00:32:39;;;;;;;178.05;25.88;;;153.70;2252.80;;;;;;5008368;28;19909;-75
2022/12/07 00:35:05;;;;;;;;;;;153.60;2252.80;;;;;;5015063;28;20040;-75
2022/12/07 00:37:31;;;;;;;164.38;26.92;;;153.60;2252.80;;;;;;5017167;28;20320;-74
2022/12/07 00:39:56;;;;;;;;;;;153.60;2252.80;;;;;;5023562;28;20225;-75
2022/12/07 00:42:22;;;;;;;69.30;21.15;;;153.60;2252.80;;;;;;5017031;28;19912;-77
2022/12/07 00:44:47;;;;;;;;;;;153.60;2252.80;;;;;;5014484;28;20108;-74
2022/12/07 00:47:13;;;;;;;90.68;17.67;;;128.90;2252.80;;;;;;5011993;28;19912;-74
2022/12/07 00:49:39;;;;;;;;;;;128.80;2252.80;;;;;;5012384;28;20469;-74
2022/12/07 00:52:04;;;;;;;93.68;20.70;;;128.60;2252.80;;;;;;5014574;28;20015;-74
2022/12/07 00:54:30;;;;;;;;;;;128.50;2252.80;;;;;;5015276;28;20038;-74
2022/12/07 00:56:56;;;;;;;32.83;15.85;;;128.40;2252.80;;;;;;5008487;28;19956;-75
2022/12/07 00:59:21;;;;;;;;;;;128.40;2252.80;;;;;;5003452;28;20041;-74
2022/12/07 01:01:48;;;;;;;37.97;17.77;;;128.40;2252.80;;;;;;5014476;28;19905;-79
2022/12/07 01:04:13;;;;;;;64.43;19.38;;;128.30;2252.80;;;;;;5032155;28;20037;-75
2022/12/07 01:06:39;;;;;;;;;;;128.30;2252.80;;;;;;5015162;28;20026;-74
2022/12/07 01:09:05;;;;;;;107.03;21.80;;;128.20;2252.80;;;;;;5002050;28;19909;-75
2022/12/07 01:11:32;;;;;;;83.38;19.58;;;128.20;2252.80;;;;;;5016154;28;20030;-74
2022/12/07 01:13:58;;;;;;;;;;;128.10;2252.80;;;;;;5017418;28;20022;-76
2022/12/07 01:16:26;;;;;;;56.83;15.90;;;128.00;2252.80;;;;;;5011208;28;19949;-75
2022/12/07 01:18:54;;;;;;;31.85;15.70;;;128.20;2252.80;;;;;;4996202;28;20029;-74
2022/12/07 01:21:25;;;;;;;90.05;19.23;;;128.10;2252.80;;;;;;5017200;28;20013;-74
2022/12/07 01:23:51;;;;;;;42.35;16.75;;;128.20;2252.80;;;;;;5019660;28;20028;-79
2022/12/07 01:26:19;;;;;;;;;;;128.40;2252.80;;;;;;5018824;28;20037;-74
2022/12/07 01:28:45;;;;;;;59.10;17.67;;;128.40;2252.80;;;;;;5005694;28;19912;-75
2022/12/07 01:31:12;;;;;;;;;;;128.40;2252.80;;;;;;5014226;28;20049;-75
2022/12/07 01:33:38;;;;;;;49.90;15.45;;;128.40;2252.80;;;;;;5021881;28;19905;-74
2022/12/07 01:36:06;;;;;;;44.05;16.63;;;128.60;2252.80;;;;;;5005140;28;20045;-75
2022/12/07 01:38:33;;;;;;;48.22;14.02;;;128.50;2252.80;;;;;;5015818;28;20030;-74
2022/12/07 01:41:00;;;;;;;32.10;15.02;;;128.70;2252.80;;;;;;5019570;28;20014;-77
2022/12/07 01:43:28;;;;;;;20.73;13.43;;;128.80;2252.80;;;;;;5017818;28;20049;-75
2022/12/07 01:45:55;;;;;;;20.48;14.35;;;128.90;2252.80;;;;;;5015615;28;20033;-75
2022/12/07 01:48:30;;;;;;;29.55;17.90;;;153.60;2252.80;;;;;;5019570;28;20030;-74
2022/12/07 01:51:00;;;;;;;27.27;18.08;;;153.70;2252.80;;;;;;5027400;28;20021;-74
2022/12/07 01:53:29;;;;;;;23.10;15.30;;;153.80;2252.80;;;;;;5011317;28;20033;-74
2022/12/07 01:55:56;;;;;;;22.48;13.07;;;153.70;2252.80;;;;;;5014273;28;20047;-74
2022/12/07 01:58:23;;;;;;;18.85;12.45;;;153.80;2252.80;;;;;;5014007;28;20068;-74
2022/12/07 02:00:49;;;;;;;24.30;13.57;;;153.70;2252.80;;;;;;5017733;28;20035;-74
2022/12/07 02:03:19;;;;;;;;;;;153.60;2252.80;;;;;;5012848;28;20029;-74
2022/12/07 02:05:47;;;;;;;22.52;13.88;;;153.60;2252.80;;;;;;5001413;28;19957;-74
2022/12/07 02:08:13;;;;;;;19.00;12.52;;;128.90;2252.80;;;;;;5014199;28;20048;-75
2022/12/07 02:10:39;;;;;;;;;;;153.60;2252.80;;;;;;5014455;28;20056;-78
2022/12/07 02:13:13;;;;;;;21.52;15.05;;;128.90;2252.80;;;;;;5017038;28;19937;-74
2022/12/07 02:16:00;;;;;;;18.08;12.55;;;128.90;2252.80;;;;;;5007510;28;20018;-77
2022/12/07 02:18:53;;;;;;;17.65;11.93;;;153.60;2252.80;;;;;;5027745;28;20033;-75
2022/12/07 02:21:41;;;;;;;18.63;12.93;;;153.70;2252.80;;;;;;5022828;28;20041;-75
2022/12/07 02:24:33;;;;;;;17.08;11.57;;;153.80;2252.80;;;;;;5028689;28;20117;-75
2022/12/07 02:27:25;;;;;;;21.85;14.98;;;153.80;2252.80;;;;;;5011992;28;20178;-75
2022/12/07 02:30:05;;;;;;;16.30;11.68;;;153.90;2252.80;;;;;;5005024;28;20035;-74
2022/12/07 02:32:40;;;;;;;17.33;11.70;;;153.90;2252.80;;;;;;5032626;28;20044;-74
2022/12/07 02:35:16;;;;;;;18.55;12.20;;;154.00;2252.80;;;;;;5015259;28;20030;-74
2022/12/07 02:37:45;;;;;;;;;;;153.90;2252.80;;;;;;5015277;28;20061;-76
2022/12/07 02:40:16;;;;;;;15.27;10.55;;;153.80;2252.80;;;;;;5015334;28;19928;-75
2022/12/07 02:42:47;;;;;;;16.48;10.75;;;153.70;2252.80;;;;;;5015158;28;20481;-75
2022/12/07 02:45:17;;;;;;;22.70;14.73;;;153.80;2252.80;;;;;;5013810;28;20137;-75
2022/12/07 02:47:44;;;;;;;18.25;11.60;;;153.80;2252.80;;;;;;5010998;28;20518;-75
2022/12/07 02:50:10;;;;;;;16.80;12.02;;;153.80;2252.80;;;;;;5022276;28;20107;-76
2022/12/07 02:52:36;;;;;;;17.27;12.02;;;153.90;2252.80;;;;;;5021441;28;20106;-74
2022/12/07 02:55:02;;;;;;;;;;;154.00;2252.80;;;;;;5015002;28;20141;-75
2022/12/07 02:57:45;;;;;;;21.60;11.70;;;154.10;2252.80;;;;;;5015048;28;19912;-75
2022/12/07 03:00:19;;;;;;;17.88;10.18;;;154.10;2252.80;;;;;;5020477;28;20103;-76
2022/12/07 03:02:54;;;;;;;14.80;10.20;;;154.20;2252.80;;;;;;5021522;28;20045;-75
2022/12/07 03:05:50;;;;;;;15.77;10.32;;;154.20;2252.80;;;;;;5028212;28;20038;-74
2022/12/07 03:08:28;;;;;;;14.45;10.85;;;154.20;2252.80;;;;;;5013249;28;20034;-74
2022/12/07 03:11:04;;;;;;;16.85;11.25;;;154.10;2252.80;;;;;;5014335;28;20026;-74
2022/12/07 03:13:52;;;;;;;17.50;11.73;;;154.10;2252.80;;;;;;5014324;28;20025;-74
2022/12/07 03:16:30;;;;;;;20.45;12.13;;;154.20;2252.80;;;;;;5014588;28;20072;-74
2022/12/07 03:19:14;;;;;;;20.92;12.35;;;154.20;2252.80;;;;;;5003269;28;20039;-74
2022/12/07 03:21:49;;;;;;;20.77;12.82;;;154.30;2252.80;;;;;;5019023;28;20018;-75
2022/12/07 03:24:21;;;;;;;20.75;13.88;;;154.40;2252.80;;;;;;5014400;28;20026;-74
2022/12/07 03:27:16;;;;;;;22.48;13.50;;;154.40;2252.80;;;;;;5014210;28;20083;-75
2022/12/07 03:29:52;;;;;;;25.95;13.88;;;154.10;2252.80;;;;;;5006876;28;20042;-75
2022/12/07 03:32:27;;;;;;;20.13;11.93;;;153.80;2252.80;;;;;;5029265;28;20050;-74
2022/12/07 03:34:56;;;;;;;26.17;14.00;;;153.70;2252.80;;;;;;5008091;28;20083;-75
2022/12/07 03:37:43;;;;;;;26.63;15.27;;;153.60;2252.80;;;;;;5015760;28;20329;-74
2022/12/07 03:40:30;;;;;;;32.22;12.77;;;153.80;2252.80;;;;;;5020190;28;20036;-74
2022/12/07 03:42:59;;;;;;;32.90;17.35;;;153.70;2252.80;;;;;;5014045;28;20018;-75
2022/12/07 03:45:38;;;;;;;32.55;17.15;;;153.70;2252.80;;;;;;5009969;28;20144;-74
2022/12/07 03:48:09;;;;;;;33.60;16.95;;;153.70;2252.80;;;;;;5014944;28;20018;-74
2022/12/07 03:50:43;;;;;;;35.50;18.45;;;154.00;2252.80;;;;;;5018748;28;20076;-75
2022/12/07 03:53:22;;;;;;;34.13;17.40;;;154.10;2252.80;;;;;;5011949;28;20385;-75
2022/12/07 03:55:49;;;;;;;34.05;17.92;;;154.10;2252.80;;;;;;5013541;28;20080;-74
2022/12/07 03:58:18;;;;;;;37.80;18.02;;;154.20;2252.80;;;;;;5013636;28;20459;-74
2022/12/07 04:00:45;;;;;;;34.97;16.80;;;154.30;2252.80;;;;;;5027266;28;20025;-74
2022/12/07 04:03:11;;;;;;;33.08;17.05;;;154.10;2252.80;;;;;;5015980;28;20021;-75
2022/12/07 04:05:38;;;;;;;33.40;17.10;;;154.30;2252.80;;;;;;5024285;28;20426;-75
2022/12/07 04:08:04;;;;;;;34.50;18.10;;;154.20;2252.80;;;;;;5027314;28;20068;-74
2022/12/07 04:10:30;;;;;;;;;;;154.30;2252.80;;;;;;5003247;28;20057;-76
2022/12/07 04:12:56;;;;;;;34.85;18.27;;;154.40;2252.80;;;;;;5033300;28;19905;-75
2022/12/07 04:15:21;;;;;;;;;;;154.20;2252.80;;;;;;5015751;28;20025;-78
2022/12/07 04:17:47;;;;;;;30.80;17.13;;;154.40;2252.80;;;;;;5022525;28;19912;-74
2022/12/07 04:20:13;;;;;;;;;;;154.40;2252.80;;;;;;5010128;28;20517;-75
2022/12/07 04:22:39;;;;;;;27.35;15.43;;;154.40;2252.80;;;;;;5013290;28;19905;-74
2022/12/07 04:25:05;;;;;;;;;;;154.40;2252.80;;;;;;5013503;28;20026;-74
2022/12/07 04:27:30;;;;;;;25.63;14.00;;;154.50;2252.80;;;;;;5013140;28;19915;-75
2022/12/07 04:29:56;;;;;;;;;;;154.40;2252.80;;;;;;5013612;28;20049;-74
2022/12/07 04:32:23;;;;;;;28.08;15.23;;;154.20;2252.80;;;;;;5012863;28;19914;-78
2022/12/07 04:34:48;;;;;;;24.80;15.15;;;154.20;2252.80;;;;;;5013055;28;20034;-75
2022/12/07 04:37:14;;;;;;;;;;;154.30;2252.80;;;;;;5011931;28;20145;-75
2022/12/07 04:39:40;;;;;;;23.98;14.93;;;154.20;2252.80;;;;;;5012890;28;19928;-74
2022/12/07 04:42:05;;;;;;;;;;;154.10;2252.80;;;;;;5013371;28;20382;-75
2022/12/07 04:44:31;;;;;;;23.55;13.52;;;154.10;2252.80;;;;;;5013060;28;20351;-75
2022/12/07 04:46:57;;;;;;;;;;;154.20;2252.80;;;;;;5013157;28;20030;-77
2022/12/07 04:49:24;;;;;;;28.42;15.30;;;154.30;2252.80;;;;;;5011593;28;19912;-74
2022/12/07 04:51:50;;;;;;;29.70;16.65;;;154.20;2252.80;;;;;;5011849;28;20033;-74
2022/12/07 04:54:16;;;;;;;;;;;154.10;2252.80;;;;;;5009154;28;20440;-74
2022/12/07 04:56:43;;;;;;;30.90;16.50;;;154.10;2252.80;;;;;;5012802;28;20008;-75
2022/12/07 04:59:11;;;;;;;28.80;16.73;;;154.40;2252.80;;;;;;5012412;28;20108;-74
2022/12/07 05:01:36;;;;;;;28.02;15.95;;;154.50;2252.80;;;;;;5012806;28;20061;-75
2022/12/07 05:04:02;;;;;;;;;;;179.20;2252.80;;;;;;5022563;28;20045;-76
2022/12/07 05:06:28;;;;;;;32.70;18.40;;;154.50;2252.80;;;;;;5012804;28;19923;-74
2022/12/07 05:08:53;;;;;;;;;;;179.20;2252.80;;;;;;5002795;28;20017;-74
2022/12/07 05:11:37;;;;;;;80.53;33.30;;;179.30;2252.80;;;;;;5014662;28;20445;-75
2022/12/07 05:14:15;;;;;;;62.70;26.70;;;179.30;2252.80;;;;;;5024443;28;20030;-74
2022/12/07 05:16:42;;;;;;;43.00;22.05;;;179.20;2252.80;;;;;;5012210;28;20037;-78
2022/12/07 05:19:08;;;;;;;37.20;19.30;;;179.40;2252.80;;;;;;5012985;28;20145;-77
2022/12/07 05:21:35;;;;;;;42.97;23.48;;;179.40;2252.80;;;;;;5008390;28;20481;-75
2022/12/07 05:24:01;;;;;;;67.40;34.15;;;179.40;2252.80;;;;;;5012184;28;20022;-75
2022/12/07 05:26:27;;;;;;;43.03;25.25;;;179.40;2252.80;;;;;;5012168;28;20033;-75
2022/12/07 05:28:53;;;;;;;;;;;179.50;2252.80;;;;;;5026491;28;20014;-74
2022/12/07 05:31:19;;;;;;;31.98;16.40;;;179.50;2252.80;;;;;;5012066;28;20258;-75
2022/12/07 05:33:45;;;;;;;25.60;16.27;;;179.50;2252.80;;;;;;5011832;28;20038;-75
2022/12/07 05:36:10;;;;;;;;;;;179.40;2252.80;;;;;;5012859;28;20467;-75
2022/12/07 05:38:36;;;;;;;23.95;15.40;;;179.30;2252.80;;;;;;5024659;28;19905;-75
2022/12/07 05:41:02;;;;;;;;;;;179.40;2252.80;;;;;;5012933;28;20521;-74
2022/12/07 05:43:28;;;;;;;25.30;15.43;;;179.40;2252.80;;;;;;5011984;28;19951;-74
2022/12/07 05:45:54;;;;;;;30.15;16.48;;;179.30;2252.80;;;;;;5026002;28;20030;-75
2022/12/07 05:48:20;;;;;;;;;;;179.30;2252.80;;;;;;5011226;28;20040;-75
2022/12/07 05:50:48;;;;;;;26.33;15.02;;;179.40;2252.80;;;;;;5011890;28;19906;-75
2022/12/07 05:53:14;;;;;;;36.83;20.67;;;179.40;2252.80;;;;;;5011823;28;20414;-74
2022/12/07 05:55:40;;;;;;;34.85;19.45;;;179.40;2252.80;;;;;;5011772;28;20087;-74
2022/12/07 06:00:49;;;;;;;32.67;18.70;;;179.40;2252.80;;;;;;5012005;28;20277;-74
2022/12/07 06:03:15;;;;;;;;;;;179.40;2252.80;;;;;;5017929;28;20022;-74
2022/12/07 06:05:41;;;;;;;32.35;18.65;;;179.50;2252.80;;;;;;5026265;28;20380;-74
2022/12/07 06:08:07;;;;;;;;;;;179.60;2252.80;;;;;;5012284;28;20036;-74
2022/12/07 06:10:33;;;;;;;33.65;18.67;;;179.50;2252.80;;;;;;5015641;28;19906;-75
2022/12/07 06:12:58;;;;;;;;;;;179.50;2252.80;;;;;;5029159;28;20022;-75
2022/12/07 06:15:24;;;;;;;29.77;16.02;;;179.20;2252.80;;;;;;5016307;28;19910;-75
2022/12/07 06:17:50;;;;;;;;;;;179.30;2252.80;;;;;;5016009;28;20029;-75
2022/12/07 06:20:16;;;;;;;30.40;16.73;;;179.40;2252.80;;;;;;5015480;28;20001;-74
2022/12/07 06:22:41;;;;;;;;;;;179.50;2252.80;;;;;;5007362;28;20045;-74
2022/12/07 06:25:07;;;;;;;28.02;15.80;;;179.50;2252.80;;;;;;5016201;28;19909;-74
2022/12/07 06:27:33;;;;;;;;;;;179.50;2252.80;;;;;;5015771;28;20492;-74
2022/12/07 06:29:59;;;;;;;31.02;18.58;;;179.50;2252.80;;;;;;5025399;28;19975;-75
2022/12/07 06:32:25;;;;;;;30.10;16.35;;;179.40;2252.80;;;;;;5020277;28;20057;-74
2022/12/07 06:34:51;;;;;;;;;;;179.40;2252.80;;;;;;5019299;28;20045;-78
2022/12/07 06:37:16;;;;;;;36.85;19.85;;;179.40;2252.80;;;;;;5017055;28;19948;-74
2022/12/07 06:39:42;;;;;;;;;;;179.40;2252.80;;;;;;5017496;28;20029;-74
2022/12/07 06:42:08;;;;;;;34.65;20.02;;;179.40;2252.80;;;;;;5029632;28;19912;-77
2022/12/07 06:44:33;;;;;;;;;;;179.30;2252.80;;;;;;5016386;28;20050;-75
2022/12/07 06:46:59;;;;;;;31.42;17.88;;;179.30;2252.80;;;;;;5015256;28;19909;-77
2022/12/07 06:49:24;;;;;;;;;;;179.20;2252.80;;;;;;5015441;28;20025;-75
2022/12/07 06:51:50;;;;;;;34.40;18.60;;;179.30;2252.80;;;;;;5023987;28;19958;-75
2022/12/07 06:54:16;;;;;;;;;;;179.30;2252.80;;;;;;5020935;28;20073;-79
2022/12/07 06:56:42;;;;;;;31.33;18.45;;;179.60;2252.80;;;;;;5028122;28;20004;-75
2022/12/07 06:59:07;;;;;;;;;;;179.20;2252.80;;;;;;5028057;28;20029;-76
2022/12/07 07:01:34;;;;;;;30.10;16.83;;;154.40;2252.80;;;;;;5024099;28;20281;-75
2022/12/07 07:04:01;;;;;;;32.75;17.73;;;154.40;2252.80;;;;;;5004310;28;20038;-75
2022/12/07 07:06:27;;;;;;;31.13;16.20;;;154.40;2252.80;;;;;;5022716;28;20455;-74
2022/12/07 07:08:52;;;;;;;;;;;179.20;2252.80;;;;;;5028611;28;20032;-76
2022/12/07 07:11:18;;;;;;;32.92;18.50;;;179.30;2252.80;;;;;;5015971;28;19917;-76
2022/12/07 07:13:44;;;;;;;;;;;179.20;2252.80;;;;;;5011524;28;20081;-76
2022/12/07 07:16:10;;;;;;;38.67;20.10;;;179.20;2252.80;;;;;;5016481;28;19929;-75
2022/12/07 07:18:36;;;;;;;;;;;179.20;2252.80;;;;;;5013737;28;20474;-75
2022/12/07 07:21:02;;;;;;;35.40;19.10;;;154.50;2252.80;;;;;;5016493;28;19913;-73
2022/12/07 07:23:28;;;;;;;32.22;18.58;;;154.40;2252.80;;;;;;5028232;28;20025;-74
2022/12/07 07:25:54;;;;;;;33.40;19.23;;;154.50;2252.80;;;;;;5014048;28;20506;-74
2022/12/07 07:28:20;;;;;;;;;;;154.50;2252.80;;;;;;5014670;28;20032;-76
2022/12/07 07:30:46;;;;;;;40.80;19.35;;;154.50;2252.80;;;;;;5033996;28;19905;-75
2022/12/07 07:33:13;;;;;;;;;;;154.50;2252.80;;;;;;5018707;28;20474;-77
2022/12/07 07:35:39;;;;;;;36.15;20.02;;;154.50;2252.80;;;;;;5014138;28;19963;-75
2022/12/07 07:38:05;;;;;;;40.92;19.52;;;154.40;2252.80;;;;;;5014108;28;20080;-78
2022/12/07 07:40:31;;;;;;;36.78;20.17;;;154.50;2252.80;;;;;;5002318;28;20017;-76
2022/12/07 07:42:57;;;;;;;;;;;179.20;2252.80;;;;;;5016286;28;20034;-75
2022/12/07 07:45:24;;;;;;;35.13;18.55;;;154.50;2252.80;;;;;;5015785;28;20420;-76
2022/12/07 07:47:50;;;;;;;40.30;21.35;;;154.50;2252.80;;;;;;5006284;28;20048;-77
2022/12/07 07:50:17;;;;;;;38.88;19.90;;;154.50;2252.80;;;;;;5020060;28;20096;-77
2022/12/07 07:52:43;;;;;;;39.67;20.55;;;154.50;2252.80;;;;;;5010816;28;20414;-75
2022/12/07 07:55:09;;;;;;;46.75;22.90;;;154.50;2252.80;;;;;;5003614;28;20134;-75
2022/12/07 07:57:36;;;;;;;52.28;26.08;;;154.50;2252.80;;;;;;5006151;28;20037;-75
2022/12/07 08:00:09;;;;;;;60.47;28.48;;;154.50;2252.80;;;;;;5015425;28;20112;-76
2022/12/07 08:02:34;;;;;;;47.95;22.90;;;154.50;2252.80;;;;;;5026224;28;20105;-76
2022/12/07 08:05:00;;;;;;;;;;;154.50;2252.80;;;;;;5028707;28;20621;-77
2022/12/07 08:07:27;;;;;;;46.58;20.88;;;154.40;2252.80;;;;;;5023922;28;19905;-77
2022/12/07 08:09:53;;;;;;;39.55;20.42;;;154.50;2252.80;;;;;;4998155;28;20077;-77
2022/12/07 08:12:19;;;;;;;;;;;179.20;2252.80;;;;;;5012296;28;20160;-75
2022/12/07 08:14:45;;;;;;;46.78;22.00;;;154.50;2252.80;;;;;;5021257;28;20329;-78
2022/12/07 08:17:10;;;;;;;;;;;154.50;2252.80;;;;;;5021587;28;20063;-77
2022/12/07 08:19:36;;;;;;;48.55;21.10;;;154.50;2252.80;;;;;;5011401;28;19909;-76
2022/12/07 08:22:02;;;;;;;;;;;179.20;2252.80;;;;;;5014221;28;20065;-77
2022/12/07 08:24:27;;;;;;;39.05;19.50;;;154.50;2252.80;;;;;;5013151;28;20296;-76
2022/12/07 08:26:53;;;;;;;;;;;154.50;2252.80;;;;;;5024702;28;20040;-76
2022/12/07 08:29:19;;;;;;;32.95;15.35;;;179.20;2252.80;;;;;;5005386;28;20013;-75
2022/12/07 08:31:44;;;;;;;;;;;179.30;2252.80;;;;;;5026229;28;20057;-76
2022/12/07 08:34:11;;;;;;;33.22;16.48;;;179.30;2252.80;;;;;;5014026;28;19913;-76
2022/12/07 08:36:37;;;;;;;33.35;20.33;;;179.30;2252.80;;;;;;5005841;28;20025;-77
2022/12/07 08:39:02;;;;;;;;;;;179.30;2252.80;;;;;;5015302;28;20443;-75
2022/12/07 08:41:28;;;;;;;36.80;18.65;;;179.30;2252.80;;;;;;5023831;28;20258;-76
2022/12/07 08:43:54;;;;;;;;;;;179.30;2252.80;;;;;;5010085;28;20133;-75
2022/12/07 08:46:21;;;;;;;35.78;16.48;;;179.30;2252.80;;;;;;5025856;28;20254;-76
2022/12/07 08:48:52;;;;;;;39.92;20.10;;;179.20;2252.80;;;;;;5012593;28;20030;-76
2022/12/07 08:51:18;;;;;;;36.70;18.23;;;154.50;2252.80;;;;;;5011680;28;20538;-74
2022/12/07 08:53:43;;;;;;;;;;;179.20;2252.80;;;;;;5024542;28;20042;-76
2022/12/07 08:56:09;;;;;;;32.10;19.13;;;179.30;2252.80;;;;;;5014749;28;19911;-77
2022/12/07 08:58:38;;;;;;;36.35;19.27;;;179.20;2252.80;;;;;;5022856;28;20034;-74
2022/12/07 09:01:04;;;;;;;33.92;18.65;;;179.30;2252.80;;;;;;5026507;28;20100;-76
2022/12/07 09:03:31;;;;;;;32.55;19.10;;;179.20;2252.80;;;;;;5020506;28;20029;-77
2022/12/07 09:05:57;;;;;;;37.90;20.50;;;179.40;2252.80;;;;;;5032223;28;20493;-74
2022/12/07 09:08:29;;;;;;;34.70;19.52;;;179.40;2252.80;;;;;;5026969;28;20087;-76
2022/12/07 09:10:55;;;;;;;33.05;18.08;;;179.40;2252.80;;;;;;5012577;28;20030;-76
2022/12/07 09:13:21;;;;;;;;;;;179.40;2252.80;;;;;;5013092;28;20036;-77
2022/12/07 09:15:46;;;;;;;30.77;18.38;;;179.50;2252.80;;;;;;5011214;28;19905;-77
2022/12/07 09:18:12;;;;;;;;;;;179.60;2252.80;;;;;;5009129;28;20028;-76
2022/12/07 09:20:38;;;;;;;34.80;17.42;;;179.70;2252.80;;;;;;5011872;28;20011;-76
2022/12/07 09:23:05;;;;;;;;;;;179.70;2252.80;;;;;;5025071;28;20027;-74
2022/12/07 09:25:31;;;;;;;36.15;19.05;;;179.80;2252.80;;;;;;5013386;28;20373;-75
2022/12/07 09:27:57;;;;;;;;;;;179.90;2252.80;;;;;;5012891;28;20037;-75
2022/12/07 09:30:23;;;;;;;29.13;16.50;;;180.00;2252.80;;;;;;5014756;28;19916;-76
2022/12/07 09:32:49;;;;;;;;;;;180.10;2252.80;;;;;;5023993;28;20033;-76
2022/12/07 09:35:14;;;;;;;34.63;20.70;;;180.10;2252.80;;;;;;5026042;28;19909;-75
2022/12/07 09:37:40;;;;;;;;;;;204.90;2252.80;;;;;;5014323;28;20441;-76
2022/12/07 09:40:06;;;;;;;33.40;17.95;;;204.90;2252.80;;;;;;5016338;28;19937;-77
2022/12/07 09:42:54;;;;;;;27.70;15.43;;;204.90;2252.80;;;;;;5020715;28;20107;-78
2022/12/07 09:45:27;;;;;;;27.92;15.35;;;204.90;2252.80;;;;;;5022702;28;20030;-78
2022/12/07 09:47:53;;;;;;;26.73;14.70;;;204.90;2252.80;;;;;;5004913;28;20026;-78
2022/12/07 09:50:23;;;;;;;;;;;204.90;2252.80;;;;;;5035837;28;20071;-74
2022/12/07 09:52:49;;;;;;;30.20;13.80;;;205.00;2252.80;;;;;;5016716;28;19952;-78
2022/12/07 09:55:25;;;;;;;27.25;15.30;;;204.90;2252.80;;;;;;5009607;28;20045;-78
2022/12/07 09:57:52;;;;;;;27.70;15.02;;;205.00;2252.80;;;;;;5022637;28;20021;-77
2022/12/07 10:00:21;;;;;;;27.65;14.95;;;205.10;2252.80;;;;;;5005795;28;20025;-76
2022/12/07 10:02:58;;;;;;;28.45;14.90;;;205.10;2252.80;;;;;;5023204;28;20374;-76
2022/12/07 10:05:32;;;;;;;26.10;14.55;;;205.20;2252.80;;;;;;5024334;28;20041;-77
2022/12/07 10:07:57;;;;;;;25.55;13.90;;;205.20;2252.80;;;;;;5006769;28;20014;-78
2022/12/07 10:10:29;;;;;;;;;;;205.20;2252.80;;;;;;5015239;28;20535;-75
2022/12/07 10:12:55;;;;;;;22.75;12.98;;;205.10;2252.80;;;;;;5011049;28;19905;-77
2022/12/07 10:15:20;;;;;;;;;;;204.90;2252.80;;;;;;5014495;28;20028;-75
2022/12/07 10:17:51;;;;;;;29.52;14.23;;;205.00;2252.80;;;;;;5008726;28;20360;-78
2022/12/07 10:20:21;;;;;;;28.85;15.68;;;205.10;2252.80;;;;;;5018127;28;20025;-77
2022/12/07 10:23:03;;;;;;;31.95;16.45;;;205.10;2252.80;;;;;;5011511;28;20022;-77
2022/12/07 10:25:34;;;;;;;25.27;13.93;;;205.10;2252.80;;;;;;5006046;28;20032;-79
2022/12/07 10:28:16;;;;;;;30.05;14.70;;;205.10;2252.80;;;;;;5014107;28;20030;-77
2022/12/07 10:30:53;;;;;;;24.92;15.13;;;205.10;2252.80;;;;;;4999864;28;20025;-78
2022/12/07 10:33:32;;;;;;;23.42;13.98;;;205.10;2252.80;;;;;;5027192;28;20025;-79
2022/12/07 10:35:59;;;;;;;27.60;15.02;;;205.20;2252.80;;;;;;5021176;28;20029;-78
2022/12/07 10:38:31;;;;;;;31.13;14.98;;;205.10;2252.80;;;;;;5035511;28;20115;-76
2022/12/07 10:41:07;;;;;;;20.98;12.32;;;205.20;2252.80;;;;;;5017399;28;20048;-76
2022/12/07 10:43:33;;;;;;;20.80;12.55;;;205.30;2252.80;;;;;;5023750;28;20040;-77
2022/12/07 10:46:18;;;;;;;;;;;205.30;2252.80;;;;;;5014085;28;20038;-78
2022/12/07 10:49:05;;;;;;;20.13;12.55;;;205.30;2252.80;;;;;;5026065;28;20356;-76
2022/12/07 10:51:40;;;;;;;17.08;10.13;;;205.20;2252.80;;;;;;5028798;28;20037;-77
2022/12/07 10:54:25;;;;;;;21.95;13.63;;;205.30;2252.80;;;;;;5007719;28;20128;-78
2022/12/07 10:57:16;;;;;;;22.35;13.30;;;205.30;2252.80;;;;;;5029052;28;20029;-80
2022/12/07 11:00:20;;;;;;;19.98;11.80;;;205.30;2252.80;;;;;;5002965;28;20026;-78
2022/12/07 11:03:15;;;;;;;23.85;13.48;;;205.40;2252.80;;;;;;4973607;28;20050;-76
2022/12/07 11:05:54;;;;;;;22.33;13.02;;;205.60;2252.80;;;;;;4977975;28;20042;-77
2022/12/07 11:09:01;;;;;;;22.40;13.93;;;205.70;2252.80;;;;;;4977004;28;20467;-77
2022/12/07 11:11:33;;;;;;;23.23;12.00;;;205.60;2252.80;;;;;;4971084;28;20035;-78
2022/12/07 11:14:09;;;;;;;24.95;13.93;;;205.70;2252.80;;;;;;4957783;28;20506;-79
2022/12/07 11:16:57;;;;;;;23.45;13.43;;;230.40;2252.80;;;;;;4968879;28;20125;-78
2022/12/07 11:19:41;;;;;;;21.42;13.30;;;230.40;2252.80;;;;;;4967530;28;20034;-78
2022/12/07 11:22:43;;;;;;;23.45;14.90;;;230.50;2252.80;;;;;;4993050;28;20026;-79
2022/12/07 11:25:21;;;;;;;21.70;12.77;;;230.40;2252.80;;;;;;4915759;29;20040;-76
2022/12/07 11:28:11;;;;;;;25.13;13.52;;;230.50;2252.80;;;;;;4900719;29;20489;-82
2022/12/07 11:30:52;;;;;;;22.80;11.85;;;230.60;2252.80;;;;;;4914909;29;20031;-79
2022/12/07 11:33:26;;;;;;;25.33;13.13;;;230.60;2252.80;;;;;;4914244;29;20044;-79
2022/12/07 11:36:15;;;;;;;21.83;13.90;;;230.60;2252.80;;;;;;4906698;29;20111;-83
2022/12/07 11:38:53;;;;;;;25.67;13.55;;;230.70;2252.80;;;;;;4918122;29;20106;-80
2022/12/07 11:41:32;;;;;;;25.73;15.00;;;230.70;2252.80;;;;;;4923644;29;20068;-80
2022/12/07 11:44:15;;;;;;;31.85;19.65;;;230.70;2252.80;;;;;;4928855;29;20119;-78
2022/12/07 11:47:05;;;;;;;27.52;16.77;;;230.80;2252.80;;;;;;4942831;28;20090;-79
2022/12/07 11:49:39;;;;;;;28.50;17.90;;;230.90;2252.80;;;;;;4931878;29;20085;-79
2022/12/07 11:52:09;;;;;;;35.25;17.27;;;230.90;2252.80;;;;;;4934676;29;20825;-79
2022/12/07 11:54:42;;;;;;;46.03;19.30;;;230.80;2252.80;;;;;;4933252;29;20055;-78
2022/12/07 11:57:22;;;;;;;28.00;14.43;;;230.80;2252.80;;;;;;4945081;28;20032;-79
2022/12/07 11:59:51;;;;;;;23.15;14.43;;;230.80;2252.80;;;;;;4932648;29;20047;-79
2022/12/07 12:02:31;;;;;;;24.58;14.20;;;230.70;2252.80;;;;;;4981451;28;20428;-79
2022/12/07 12:05:06;;;;;;;30.55;20.90;;;230.70;2252.80;;;;;;5033874;28;20503;-79
2022/12/07 12:07:32;;;;;;;27.48;17.15;;;230.70;2252.80;;;;;;5015925;28;20033;-78
2022/12/07 12:10:00;;;;;;;;;;;230.70;2252.80;;;;;;5020273;28;20026;-78
2022/12/07 12:12:37;;;;;;;23.48;13.63;;;230.70;2252.80;;;;;;5016075;28;20295;-79
2022/12/07 12:15:29;;;;;;;23.75;14.50;;;230.60;2252.80;;;;;;5025301;28;20025;-77
2022/12/07 12:17:54;;;;;;;26.15;14.30;;;230.70;2252.80;;;;;;4952910;28;20039;-78
2022/12/07 12:20:43;;;;;;;23.70;13.38;;;230.60;2252.80;;;;;;4952892;28;20136;-78
2022/12/07 12:23:14;;;;;;;23.00;14.02;;;230.70;2252.80;;;;;;4936105;29;20039;-78
2022/12/07 12:25:46;;;;;;;20.17;12.88;;;230.70;2252.80;;;;;;4936440;28;20058;-78
2022/12/07 12:28:33;;;;;;;20.42;13.27;;;230.70;2252.80;;;;;;4936732;29;20059;-78
2022/12/07 12:31:27;;;;;;;23.15;14.13;;;230.70;2252.80;;;;;;4936545;29;20027;-80
2022/12/07 12:34:01;;;;;;;23.60;13.75;;;230.70;2252.80;;;;;;4948662;28;20062;-78
2022/12/07 12:36:45;;;;;;;23.10;13.30;;;230.70;2252.80;;;;;;4952275;28;20066;-79
2022/12/07 12:39:13;;;;;;;23.65;14.38;;;230.70;2252.80;;;;;;4953033;29;20035;-78